createdAt,value
2019-02-21T00:01:40.547Z,5.40
2019-02-21T00:04:06.589Z,5.30
2019-02-21T00:06:32.623Z,5.30
2019-02-21T00:08:58.654Z,5.40
2019-02-21T00:11:24.675Z,5.40
2019-02-21T00:13:50.818Z,5.40
2019-02-21T00:16:17.334Z,5.30
2019-02-21T00:18:43.367Z,5.30
2019-02-21T00:21:09.381Z,5.30
2019-02-21T00:23:35.419Z,5.30
2019-02-21T00:26:01.424Z,5.30
2019-02-21T00:28:27.458Z,5.40
2019-02-21T00:30:53.474Z,5.50
2019-02-21T00:33:19.504Z,5.50
2019-02-21T00:35:45.519Z,5.60
2019-02-21T00:38:11.532Z,5.60
2019-02-21T00:40:37.585Z,5.60
2019-02-21T00:43:03.625Z,5.70
2019-02-21T00:45:29.659Z,5.70
2019-02-21T00:47:55.667Z,5.90
2019-02-21T00:50:21.695Z,6.00
2019-02-21T00:52:47.721Z,6.00
2019-02-21T00:55:13.769Z,5.90
2019-02-21T00:57:39.794Z,5.90
2019-02-21T01:00:10.384Z,6.00
2019-02-21T01:02:36.392Z,5.80
2019-02-21T01:05:02.927Z,5.80
2019-02-21T01:07:29.031Z,5.80
2019-02-21T01:09:55.063Z,5.80
2019-02-21T01:12:21.075Z,5.80
2019-02-21T01:14:47.112Z,5.80
2019-02-21T01:17:13.350Z,5.70
2019-02-21T01:19:39.412Z,5.70
2019-02-21T01:22:05.595Z,5.80
2019-02-21T01:24:31.640Z,5.70
2019-02-21T01:26:57.655Z,5.80
2019-02-21T01:29:23.683Z,5.80
2019-02-21T01:31:49.699Z,5.80
2019-02-21T01:34:15.795Z,5.80
2019-02-21T01:36:41.807Z,5.90
2019-02-21T01:39:07.940Z,5.90
2019-02-21T01:41:33.951Z,5.90
2019-02-21T01:43:59.999Z,5.90
2019-02-21T01:46:26.012Z,5.90
2019-02-21T01:48:52.053Z,5.80
2019-02-21T01:51:18.066Z,5.80
2019-02-21T01:53:44.071Z,5.80
2019-02-21T01:56:10.208Z,5.70
2019-02-21T01:58:36.211Z,5.70
2019-02-21T02:01:08.560Z,5.60
2019-02-21T02:03:30.455Z,5.50
2019-02-21T02:05:56.484Z,5.40
2019-02-21T02:08:22.497Z,5.40
2019-02-21T02:10:48.525Z,5.40
2019-02-21T02:13:24.163Z,5.40
2019-02-21T02:15:42.499Z,5.40
2019-02-21T02:18:08.512Z,5.30
2019-02-21T02:20:34.552Z,5.30
2019-02-21T02:23:00.579Z,5.20
2019-02-21T02:25:26.623Z,5.10
2019-02-21T02:27:52.641Z,5.00
2019-02-21T02:30:18.677Z,5.00
2019-02-21T02:32:44.793Z,4.90
2019-02-21T02:35:13.760Z,4.80
2019-02-21T02:37:39.767Z,4.80
2019-02-21T02:40:06.103Z,4.80
2019-02-21T02:42:32.113Z,4.70
2019-02-21T02:44:58.152Z,4.70
2019-02-21T02:47:24.184Z,4.60
2019-02-21T02:49:50.206Z,4.60
2019-02-21T02:52:16.225Z,4.60
2019-02-21T02:54:42.286Z,4.60
2019-02-21T02:57:08.320Z,4.50
2019-02-21T02:59:41.032Z,4.50
2019-02-21T03:02:02.273Z,4.40
2019-02-21T03:04:28.465Z,4.40
2019-02-21T03:06:54.577Z,4.40
2019-02-21T03:09:20.589Z,4.40
2019-02-21T03:11:46.625Z,4.40
2019-02-21T03:14:12.639Z,4.30
2019-02-21T03:16:38.747Z,4.30
2019-02-21T03:19:04.808Z,4.30
2019-02-21T03:21:30.836Z,4.30
2019-02-21T03:23:56.856Z,4.30
2019-02-21T03:26:22.883Z,4.20
2019-02-21T03:28:48.895Z,4.10
2019-02-21T03:31:14.933Z,4.10
2019-02-21T03:33:40.950Z,4.10
2019-02-21T03:36:07.003Z,4.10
2019-02-21T03:38:35.153Z,4.10
2019-02-21T03:41:01.835Z,4.10
2019-02-21T03:43:27.843Z,4.10
2019-02-21T03:45:53.891Z,4.10
2019-02-21T03:48:19.892Z,4.00
2019-02-21T03:50:45.911Z,4.00
2019-02-21T03:53:11.928Z,4.00
2019-02-21T03:55:37.955Z,4.00
2019-02-21T03:58:03.986Z,4.00
2019-02-21T04:00:29.994Z,3.90
2019-02-21T04:02:56.027Z,3.80
2019-02-21T04:05:22.044Z,3.80
2019-02-21T04:07:48.075Z,3.80
2019-02-21T04:10:14.087Z,3.80
2019-02-21T04:12:40.112Z,3.80
2019-02-21T04:15:08.538Z,3.80
2019-02-21T04:17:34.559Z,3.80
2019-02-21T04:20:00.575Z,3.80
2019-02-21T04:22:26.750Z,3.80
2019-02-21T04:24:52.838Z,3.70
2019-02-21T04:27:18.868Z,3.70
2019-02-21T04:29:44.886Z,3.70
2019-02-21T04:32:16.952Z,3.80
2019-02-21T04:34:38.960Z,3.80
2019-02-21T04:37:04.988Z,3.70
2019-02-21T04:39:31.009Z,3.70
2019-02-21T04:41:57.050Z,3.70
2019-02-21T04:44:23.064Z,3.60
2019-02-21T04:46:49.096Z,3.60
2019-02-21T04:49:15.137Z,3.60
2019-02-21T04:51:41.156Z,3.60
2019-02-21T04:54:07.180Z,3.60
2019-02-21T04:56:33.216Z,3.60
2019-02-21T04:58:59.232Z,3.60
2019-02-21T05:01:25.279Z,3.60
2019-02-21T05:03:51.295Z,3.60
2019-02-21T05:06:17.335Z,3.60
2019-02-21T05:08:43.340Z,3.70
2019-02-21T05:11:09.352Z,3.70
2019-02-21T05:13:35.480Z,3.70
2019-02-21T05:16:01.500Z,3.80
2019-02-21T05:18:27.529Z,3.80
2019-02-21T05:20:53.545Z,3.80
2019-02-21T05:23:19.576Z,3.80
2019-02-21T05:25:45.588Z,3.80
2019-02-21T05:28:19.568Z,3.90
2019-02-21T05:30:46.801Z,4.00
2019-02-21T05:33:14.852Z,4.00
2019-02-21T05:35:42.777Z,4.00
2019-02-21T05:38:16.703Z,4.00
2019-02-21T05:40:47.280Z,4.00
2019-02-21T05:43:32.113Z,4.00
2019-02-21T05:46:22.566Z,4.00
2019-02-21T05:49:02.632Z,4.00
2019-02-21T05:51:36.344Z,4.00
2019-02-21T05:54:04.280Z,4.00
2019-02-21T05:59:40.856Z,4.00
2019-02-21T06:02:14.720Z,3.90
2019-02-21T06:04:45.607Z,3.80
2019-02-21T06:07:13.662Z,3.80
2019-02-21T06:09:44.675Z,3.80
2019-02-21T06:12:33.650Z,3.80
2019-02-21T06:15:03.226Z,3.70
2019-02-21T06:17:39.882Z,3.80
2019-02-21T06:20:10.571Z,3.80
2019-02-21T06:22:41.104Z,3.80
2019-02-21T06:25:30.164Z,3.80
2019-02-21T06:27:58.531Z,3.70
2019-02-21T06:30:46.632Z,3.70
2019-02-21T06:33:12.725Z,3.60
2019-02-21T06:35:38.893Z,3.50
2019-02-21T06:38:04.946Z,3.50
2019-02-21T06:40:30.956Z,3.50
2019-02-21T06:42:57.068Z,3.60
2019-02-21T06:45:23.079Z,3.60
2019-02-21T06:47:49.127Z,3.70
2019-02-21T06:50:15.148Z,3.70
2019-02-21T06:52:41.179Z,3.70
2019-02-21T06:55:07.295Z,3.70
2019-02-21T06:57:33.313Z,3.80
2019-02-21T06:59:59.343Z,3.90
2019-02-21T07:02:27.933Z,4.00
2019-02-21T07:04:53.315Z,4.10
2019-02-21T07:07:19.327Z,4.20
2019-02-21T07:09:45.355Z,4.20
2019-02-21T07:12:11.363Z,4.40
2019-02-21T07:14:37.407Z,4.40
2019-02-21T07:17:03.423Z,4.40
2019-02-21T07:19:29.464Z,4.40
2019-02-21T07:21:55.535Z,4.30
2019-02-21T07:24:21.885Z,4.30
2019-02-21T07:26:47.888Z,4.30
2019-02-21T07:29:13.919Z,4.40
2019-02-21T07:31:39.935Z,4.40
2019-02-21T07:34:07.056Z,4.40
2019-02-21T07:36:33.417Z,4.50
2019-02-21T07:39:13.890Z,4.50
2019-02-21T07:41:27.464Z,4.60
2019-02-21T07:43:53.500Z,4.60
2019-02-21T07:46:19.513Z,4.80
2019-02-21T07:48:45.568Z,4.90
2019-02-21T07:51:13.547Z,5.10
2019-02-21T07:53:39.507Z,5.20
2019-02-21T07:56:05.622Z,5.30
2019-02-21T07:58:31.639Z,5.40
2019-02-21T08:00:57.658Z,5.50
2019-02-21T08:03:31.927Z,5.60
2019-02-21T08:05:51.732Z,5.70
2019-02-21T08:08:17.784Z,5.70
2019-02-21T08:10:43.820Z,5.80
2019-02-21T08:13:09.852Z,5.90
2019-02-21T08:15:35.899Z,6.00
2019-02-21T08:18:01.918Z,6.20
2019-02-21T08:20:34.104Z,6.20
2019-02-21T08:22:55.864Z,6.40
2019-02-21T08:25:21.910Z,6.30
2019-02-21T08:27:47.944Z,6.30
2019-02-21T08:30:14.356Z,6.40
2019-02-21T08:33:00.187Z,6.40
2019-02-21T08:35:26.515Z,6.50
2019-02-21T08:37:52.535Z,6.50
2019-02-21T08:40:18.572Z,6.60
2019-02-21T08:42:44.614Z,6.70
2019-02-21T08:45:10.723Z,6.80
2019-02-21T08:47:36.780Z,6.90
2019-02-21T08:50:04.109Z,6.90
2019-02-21T08:52:30.288Z,7.00
2019-02-21T08:55:00.077Z,7.10
2019-02-21T08:57:24.280Z,7.20
2019-02-21T08:59:50.329Z,7.40
2019-02-21T09:02:16.340Z,7.60
2019-02-21T09:04:42.375Z,7.70
2019-02-21T09:07:08.392Z,7.80
2019-02-21T09:09:34.604Z,8.00
2019-02-21T09:12:00.817Z,8.10
2019-02-21T09:14:26.973Z,8.20
2019-02-21T09:16:52.979Z,8.30
2019-02-21T09:19:19.024Z,8.40
2019-02-21T09:21:45.035Z,8.50
2019-02-21T09:24:13.643Z,8.70
2019-02-21T09:26:39.016Z,8.90
2019-02-21T09:29:05.033Z,8.90
2019-02-21T09:31:31.063Z,8.90
2019-02-21T09:33:57.076Z,9.10
2019-02-21T09:36:23.104Z,9.20
2019-02-21T09:38:49.139Z,9.40
2019-02-21T09:41:15.180Z,9.60
2019-02-21T09:43:41.192Z,9.80
2019-02-21T09:46:07.238Z,10.10
2019-02-21T09:48:33.274Z,10.30
2019-02-21T09:50:59.308Z,10.40
2019-02-21T09:53:25.319Z,10.30
2019-02-21T09:55:51.352Z,10.20
2019-02-21T09:58:17.367Z,10.20
2019-02-21T10:00:43.413Z,10.10
2019-02-21T10:03:09.535Z,9.80
2019-02-21T10:05:35.575Z,9.60
2019-02-21T10:08:01.582Z,9.40
2019-02-21T10:10:27.611Z,9.20
2019-02-21T10:12:53.629Z,9.10
2019-02-21T10:15:19.660Z,9.00
2019-02-21T10:17:45.671Z,8.90
2019-02-21T10:20:19.745Z,8.90
2019-02-21T10:22:45.762Z,9.00
2019-02-21T10:25:27.266Z,9.00
2019-02-21T10:27:53.279Z,9.20
2019-02-21T10:30:21.216Z,9.40
2019-02-21T10:32:47.223Z,9.70
2019-02-21T10:35:13.242Z,9.90
2019-02-21T10:37:39.300Z,10.20
2019-02-21T10:40:10.936Z,10.90
2019-02-21T10:45:18.242Z,11.30
2019-02-21T10:47:44.263Z,11.40
2019-02-21T10:52:41.642Z,11.60
2019-02-21T10:55:08.044Z,11.70
2019-02-21T10:57:34.067Z,11.70
2019-02-21T11:00:00.313Z,11.80
2019-02-21T11:02:26.416Z,11.80
2019-02-21T11:04:54.996Z,11.80
2019-02-21T11:07:20.415Z,11.80
2019-02-21T11:09:46.423Z,11.80
2019-02-21T11:12:12.589Z,11.90
2019-02-21T11:14:47.227Z,12.00
2019-02-21T11:17:06.559Z,12.00
2019-02-21T11:19:32.559Z,12.10
2019-02-21T11:21:58.641Z,12.20
2019-02-21T11:24:24.651Z,12.10
2019-02-21T11:26:50.807Z,12.00
2019-02-21T11:29:16.820Z,11.90
2019-02-21T11:31:42.876Z,11.80
2019-02-21T11:34:08.900Z,11.60
2019-02-21T11:36:34.930Z,11.50
2019-02-21T11:39:00.976Z,11.40
2019-02-21T11:41:27.020Z,11.40
2019-02-21T11:43:53.028Z,11.40
2019-02-21T11:46:21.873Z,11.60
2019-02-21T11:48:47.903Z,11.80
2019-02-21T11:51:13.917Z,11.80
2019-02-21T11:53:40.050Z,11.90
2019-02-21T11:56:06.160Z,12.00
2019-02-21T11:58:32.212Z,12.10
2019-02-21T12:00:58.243Z,12.30
2019-02-21T12:03:24.273Z,12.40
2019-02-21T12:05:50.291Z,12.50
2019-02-21T12:08:36.205Z,12.70
2019-02-21T12:11:02.215Z,13.00
2019-02-21T12:13:28.252Z,13.00
2019-02-21T12:15:54.265Z,13.00
2019-02-21T12:18:20.296Z,13.10
2019-02-21T12:20:46.319Z,13.20
2019-02-21T12:23:12.356Z,13.40
2019-02-21T12:25:38.419Z,13.50
2019-02-21T12:28:04.455Z,13.70
2019-02-21T12:30:33.135Z,13.80
2019-02-21T12:32:58.464Z,14.00
2019-02-21T12:35:29.604Z,14.10
2019-02-21T12:37:52.500Z,14.20
2019-02-21T12:40:21.119Z,14.30
2019-02-21T12:42:47.155Z,14.50
2019-02-21T12:45:15.380Z,14.60
2019-02-21T12:47:49.672Z,14.80
2019-02-21T12:50:10.645Z,15.00
2019-02-21T12:52:36.717Z,15.20
2019-02-21T12:55:05.640Z,15.30
2019-02-21T12:57:31.671Z,15.20
2019-02-21T12:59:57.788Z,15.20
2019-02-21T13:02:23.821Z,15.00
2019-02-21T13:04:49.835Z,14.70
2019-02-21T13:07:15.867Z,14.50
2019-02-21T13:09:41.896Z,14.50
2019-02-21T13:12:07.991Z,14.40
2019-02-21T13:14:34.008Z,14.30
2019-02-21T13:17:00.035Z,14.20
2019-02-21T13:19:26.048Z,14.10
2019-02-21T13:21:52.173Z,14.00
2019-02-21T13:24:18.209Z,14.10
2019-02-21T13:26:44.831Z,14.10
2019-02-21T13:29:13.468Z,14.20
2019-02-21T13:31:39.483Z,14.30
2019-02-21T13:34:05.516Z,14.50
2019-02-21T13:36:33.945Z,14.70
2019-02-21T13:38:59.474Z,14.90
2019-02-21T13:41:25.495Z,15.30
2019-02-21T13:43:51.527Z,15.50
2019-02-21T13:46:17.552Z,15.70
2019-02-21T13:48:43.662Z,15.90
2019-02-21T13:51:09.672Z,16.10
2019-02-21T13:53:35.719Z,16.10
2019-02-21T13:56:01.733Z,15.90
2019-02-21T13:58:27.767Z,15.70
2019-02-21T14:00:53.771Z,15.60
2019-02-21T14:03:19.814Z,15.50
2019-02-21T14:05:45.816Z,15.40
2019-02-21T14:08:11.863Z,15.20
2019-02-21T14:10:37.867Z,15.10
2019-02-21T14:13:03.931Z,15.10
2019-02-21T14:15:29.947Z,15.00
2019-02-21T14:17:55.984Z,15.10
2019-02-21T14:20:21.995Z,15.30
2019-02-21T14:22:48.049Z,15.40
2019-02-21T14:25:14.057Z,15.50
2019-02-21T14:27:40.195Z,15.40
2019-02-21T14:30:17.723Z,15.20
2019-02-21T14:32:43.753Z,15.00
2019-02-21T14:35:13.035Z,14.90
2019-02-21T14:37:39.053Z,14.70
2019-02-21T14:40:12.822Z,14.70
2019-02-21T14:42:38.850Z,14.80
2019-02-21T14:45:08.388Z,14.90
2019-02-21T14:47:34.402Z,15.00
2019-02-21T14:50:04.508Z,15.00
2019-02-21T14:52:29.801Z,15.00
2019-02-21T14:54:55.848Z,15.00
2019-02-21T14:57:21.860Z,15.00
2019-02-21T14:59:47.897Z,15.10
2019-02-21T15:02:13.973Z,15.10
2019-02-21T15:04:40.005Z,15.10
2019-02-21T15:07:06.647Z,15.10
2019-02-21T15:09:32.866Z,15.10
2019-02-21T15:11:58.885Z,15.00
2019-02-21T15:14:24.929Z,15.00
2019-02-21T15:16:50.946Z,15.00
2019-02-21T15:19:17.055Z,15.00
2019-02-21T15:21:43.072Z,15.10
2019-02-21T15:24:09.104Z,15.20
2019-02-21T15:26:35.179Z,15.10
2019-02-21T15:29:01.280Z,15.10
2019-02-21T15:31:27.298Z,15.00
2019-02-21T15:33:53.331Z,15.20
2019-02-21T15:36:19.344Z,15.10
2019-02-21T15:38:45.480Z,15.10
2019-02-21T15:41:11.747Z,15.00
2019-02-21T15:43:37.779Z,15.00
2019-02-21T15:46:03.933Z,14.90
2019-02-21T15:48:29.972Z,14.90
2019-02-21T15:50:56.080Z,14.70
2019-02-21T15:53:24.055Z,14.60
2019-02-21T15:55:50.109Z,14.40
2019-02-21T15:58:16.115Z,14.30
2019-02-21T16:00:42.152Z,14.10
2019-02-21T16:03:08.159Z,14.10
2019-02-21T16:05:34.193Z,14.00
2019-02-21T16:08:00.238Z,13.90
2019-02-21T16:10:26.692Z,13.80
2019-02-21T16:12:53.175Z,13.80
2019-02-21T16:15:19.555Z,13.70
2019-02-21T16:17:45.567Z,13.60
2019-02-21T16:20:13.875Z,13.60
2019-02-21T16:22:40.586Z,13.50
2019-02-21T16:25:20.924Z,13.40
2019-02-21T16:27:46.939Z,13.40
2019-02-21T16:30:13.184Z,13.40
2019-02-21T16:32:39.201Z,13.30
2019-02-21T16:35:27.173Z,13.10
2019-02-21T16:37:53.035Z,13.20
2019-02-21T16:40:19.171Z,13.10
2019-02-21T16:42:45.192Z,13.00
2019-02-21T16:45:13.450Z,13.00
2019-02-21T16:47:39.477Z,13.00
2019-02-21T16:50:08.232Z,13.00
2019-02-21T16:52:36.680Z,13.00
2019-02-21T16:55:03.100Z,13.00
2019-02-21T16:57:29.120Z,13.00
2019-02-21T16:59:55.155Z,13.00
2019-02-21T17:02:22.273Z,13.00
2019-02-21T17:04:48.319Z,13.00
2019-02-21T17:07:20.022Z,13.00
2019-02-21T17:09:42.360Z,13.00
2019-02-21T17:12:08.382Z,13.00
2019-02-21T17:14:34.444Z,13.00
2019-02-21T17:17:00.463Z,13.00
2019-02-21T17:19:26.496Z,13.00
2019-02-21T17:21:52.515Z,13.00
2019-02-21T17:24:18.535Z,13.00
2019-02-21T17:26:44.656Z,13.10
2019-02-21T17:29:10.668Z,13.00
2019-02-21T17:31:37.336Z,12.90
2019-02-21T17:34:03.510Z,12.80
2019-02-21T17:36:29.548Z,12.70
2019-02-21T17:38:55.571Z,12.70
2019-02-21T17:41:21.726Z,12.70
2019-02-21T17:43:48.118Z,12.50
2019-02-21T17:46:14.363Z,12.40
2019-02-21T17:49:00.265Z,12.10
2019-02-21T17:51:26.299Z,12.00
2019-02-21T17:53:52.960Z,11.80
2019-02-21T17:56:19.396Z,11.70
2019-02-21T17:58:45.547Z,11.50
2019-02-21T18:01:11.744Z,11.40
2019-02-21T18:03:37.761Z,11.30
2019-02-21T18:06:03.791Z,11.30
2019-02-21T18:08:29.832Z,11.20
2019-02-21T18:10:55.865Z,11.20
2019-02-21T18:13:21.875Z,11.30
2019-02-21T18:15:48.867Z,11.40
2019-02-21T18:18:14.889Z,11.50
2019-02-21T18:20:40.916Z,11.60
2019-02-21T18:23:06.991Z,11.70
2019-02-21T18:25:42.272Z,11.70
2019-02-21T18:28:08.287Z,11.80
2019-02-21T18:30:34.325Z,11.70
2019-02-21T18:33:00.338Z,11.70
2019-02-21T18:35:26.368Z,11.70
2019-02-21T18:37:52.379Z,11.60
2019-02-21T18:40:21.192Z,11.50
2019-02-21T18:42:47.454Z,11.40
2019-02-21T18:45:13.587Z,11.20
2019-02-21T18:47:39.608Z,11.10
2019-02-21T18:50:08.855Z,10.90
2019-02-21T18:52:35.852Z,10.80
2019-02-21T18:55:04.659Z,10.70
2019-02-21T18:57:30.652Z,10.70
2019-02-21T18:59:56.691Z,10.80
2019-02-21T19:02:22.785Z,10.80
2019-02-21T19:04:48.795Z,10.90
2019-02-21T19:07:14.829Z,10.90
2019-02-21T19:09:40.844Z,11.00
2019-02-21T19:12:06.891Z,11.10
2019-02-21T19:14:32.899Z,11.10
2019-02-21T19:16:58.935Z,11.00
2019-02-21T19:19:24.951Z,11.00
2019-02-21T19:21:50.979Z,10.90
2019-02-21T19:24:17.008Z,10.70
2019-02-21T19:26:43.115Z,10.60
2019-02-21T19:29:09.155Z,10.50
2019-02-21T19:31:35.187Z,10.40
2019-02-21T19:34:01.263Z,10.30
2019-02-21T19:36:27.495Z,10.30
2019-02-21T19:38:53.525Z,10.30
2019-02-21T19:41:19.921Z,10.40
2019-02-21T19:43:46.095Z,10.40
2019-02-21T19:46:12.151Z,10.40
2019-02-21T19:48:38.256Z,10.50
2019-02-21T19:51:04.491Z,10.50
2019-02-21T19:53:30.521Z,10.50
2019-02-21T19:55:56.556Z,10.40
2019-02-21T19:58:24.815Z,10.40
2019-02-21T20:00:50.504Z,10.40
2019-02-21T20:03:16.523Z,10.40
2019-02-21T20:05:42.859Z,10.50
2019-02-21T20:08:09.179Z,10.60
2019-02-21T20:10:35.408Z,10.60
2019-02-21T20:13:03.327Z,10.60
2019-02-21T20:15:29.347Z,10.70
2019-02-21T20:17:55.408Z,10.80
2019-02-21T20:20:24.236Z,10.80
2019-02-21T20:22:50.275Z,10.80
2019-02-21T20:25:16.283Z,10.90
2019-02-21T20:27:42.324Z,10.90
2019-02-21T20:30:11.737Z,10.90
2019-02-21T20:32:37.769Z,11.00
2019-02-21T20:35:04.284Z,11.00
2019-02-21T20:37:30.316Z,11.10
2019-02-21T20:39:56.341Z,11.10
2019-02-21T20:42:22.396Z,11.10
2019-02-21T20:44:48.411Z,11.10
2019-02-21T20:47:14.556Z,11.20
2019-02-21T20:49:40.571Z,11.20
2019-02-21T20:52:06.620Z,11.20
2019-02-21T20:54:32.636Z,11.20
2019-02-21T20:56:58.675Z,11.20
2019-02-21T20:59:24.723Z,11.30
2019-02-21T21:01:50.750Z,11.30
2019-02-21T21:04:16.768Z,11.20
2019-02-21T21:06:43.279Z,11.20
2019-02-21T21:09:09.701Z,11.20
2019-02-21T21:11:35.732Z,11.20
2019-02-21T21:14:04.383Z,11.20
2019-02-21T21:16:30.415Z,11.10
2019-02-21T21:18:56.428Z,11.10
2019-02-21T21:21:22.465Z,11.10
2019-02-21T21:23:48.479Z,11.20
2019-02-21T21:26:14.495Z,11.20
2019-02-21T21:28:40.527Z,11.20
2019-02-21T21:31:06.835Z,11.20
2019-02-21T21:33:32.884Z,11.30
2019-02-21T21:35:58.897Z,11.20
2019-02-21T21:38:24.927Z,11.20
2019-02-21T21:40:50.948Z,11.10
2019-02-21T21:43:16.991Z,11.00
2019-02-21T21:45:42.999Z,10.90
2019-02-21T21:48:09.032Z,10.70
2019-02-21T21:50:35.172Z,10.60
2019-02-21T21:53:01.752Z,10.60
2019-02-21T21:55:27.756Z,10.60
2019-02-21T21:57:53.788Z,10.50
2019-02-21T22:00:22.370Z,10.40
2019-02-21T22:02:48.587Z,10.40
2019-02-21T22:05:14.927Z,10.40
2019-02-21T22:07:40.939Z,10.30
2019-02-21T22:10:16.912Z,10.30
2019-02-21T22:12:42.930Z,10.40
2019-02-21T22:15:11.481Z,10.50
2019-02-21T22:17:37.589Z,10.50
2019-02-21T22:20:04.706Z,10.60
2019-02-21T22:22:30.751Z,10.60
2019-02-21T22:24:56.763Z,10.60
2019-02-21T22:27:24.734Z,10.50
2019-02-21T22:29:50.712Z,10.60
2019-02-21T22:32:16.745Z,10.70
2019-02-21T22:34:42.770Z,10.70
2019-02-21T22:37:08.791Z,10.80
2019-02-21T22:39:34.803Z,10.80
2019-02-21T22:42:01.746Z,10.80
2019-02-21T22:44:27.751Z,10.80
2019-02-21T22:46:53.840Z,10.80
2019-02-21T22:49:19.871Z,10.80
2019-02-21T22:51:45.891Z,10.90
2019-02-21T22:54:11.911Z,10.90
2019-02-21T22:56:37.940Z,11.00
2019-02-21T22:59:04.035Z,11.00
2019-02-21T23:01:30.767Z,11.00
2019-02-21T23:04:00.599Z,11.00
2019-02-21T23:06:48.904Z,11.00
2019-02-21T23:09:27.121Z,11.00
2019-02-21T23:11:47.712Z,11.00
2019-02-21T23:14:13.823Z,10.90
2019-02-21T23:16:39.856Z,10.80
2019-02-21T23:19:05.875Z,10.70
2019-02-21T23:21:31.903Z,10.60
2019-02-21T23:23:57.920Z,10.60
2019-02-21T23:26:23.975Z,10.50
2019-02-21T23:28:49.991Z,10.50
2019-02-21T23:31:16.000Z,10.40
2019-02-21T23:33:52.791Z,10.30
2019-02-21T23:36:18.807Z,10.10
2019-02-21T23:38:44.835Z,10.00
2019-02-21T23:41:10.868Z,10.00
2019-02-21T23:43:36.906Z,10.10
2019-02-21T23:46:02.920Z,10.10
2019-02-21T23:48:28.955Z,10.30
2019-02-21T23:50:55.028Z,10.30
2019-02-21T23:53:21.079Z,10.40
2019-02-21T23:55:47.103Z,10.50
2019-02-21T23:58:13.139Z,10.40
